Terminal Aerodrome Forecast
Issued by NWS Twin Cities, MN

Home | Current Version | Previous Version | Text Only | Print | Product List | Glossary Off
Versions: 1 2 3 4 5 6 7 8 9 10 11 12 13 14 15

320
FTUS43 KMPX 030830 AAA
TAFSTC
TAF AMD
KSTC 030830Z 0308/0406 35020G28KT 3SM -SN BLSN OVC040
     FM031200 33018G24KT 4SM BLSN OVC030
     FM031800 32014G20KT 6SM BLSN SCT030
     FM032100 29006KT P6SM BKN250
     FM040400 27005KT P6SM OVC100=

USA.gov is the U.S. government's official web portal to all federal, state and local government web resources and services.